createdAt,value
2023-11-07T00:04:53.403Z,17.82
2023-11-07T00:09:56.984Z,17.72
2023-11-07T00:15:00.918Z,17.80
2023-11-07T00:20:09.427Z,17.76
2023-11-07T00:25:13.024Z,17.63
2023-11-07T00:30:17.133Z,17.90
2023-11-07T00:35:22.710Z,17.40
2023-11-07T00:40:26.365Z,17.71
2023-11-07T00:45:29.951Z,17.77
2023-11-07T00:50:35.569Z,17.41
2023-11-07T00:55:39.479Z,17.71
2023-11-07T01:00:43.367Z,17.57
2023-11-07T01:05:48.374Z,17.69
2023-11-07T01:10:52.099Z,17.56
2023-11-07T01:15:56.021Z,17.62
2023-11-07T01:21:01.593Z,17.86
2023-11-07T01:26:06.321Z,17.74
2023-11-07T01:31:09.819Z,17.90
2023-11-07T01:36:14.901Z,17.98
2023-11-07T01:41:18.738Z,17.72
2023-11-07T01:46:22.548Z,17.90
2023-11-07T01:51:28.143Z,17.49
2023-11-07T01:56:31.862Z,17.97
2023-11-07T02:01:36.926Z,17.58
2023-11-07T02:06:42.049Z,17.64
2023-11-07T02:11:45.972Z,17.70
2023-11-07T02:16:49.647Z,18.01
2023-11-07T02:21:56.279Z,18.22
2023-11-07T02:27:01.265Z,18.42
2023-11-07T02:32:05.603Z,18.16
2023-11-07T02:37:09.696Z,18.30
2023-11-07T02:42:14.727Z,18.14
2023-11-07T02:47:18.346Z,17.96
2023-11-07T02:52:22.552Z,18.05
2023-11-07T02:57:27.623Z,18.22
2023-11-07T03:02:31.242Z,18.40
2023-11-07T03:07:34.938Z,17.79
2023-11-07T03:12:41.009Z,17.99
2023-11-07T03:17:44.850Z,18.08
2023-11-07T03:22:48.629Z,18.17
2023-11-07T03:27:53.776Z,18.02
2023-11-07T03:32:57.530Z,17.95
2023-11-07T03:38:01.204Z,17.79
2023-11-07T03:43:07.089Z,18.07
2023-11-07T03:48:10.920Z,17.61
2023-11-07T03:53:14.979Z,17.61
2023-11-07T03:58:19.859Z,17.75
2023-11-07T04:03:24.012Z,17.59
2023-11-07T04:08:27.759Z,18.00
2023-11-07T04:13:32.874Z,17.68
2023-11-07T04:18:36.685Z,17.76
2023-11-07T04:23:41.230Z,17.39
2023-11-07T04:28:46.225Z,17.69
2023-11-07T04:33:49.936Z,17.56
2023-11-07T04:38:53.602Z,17.65
2023-11-07T04:43:59.914Z,17.66
2023-11-07T04:49:07.083Z,17.67
2023-11-07T04:54:10.854Z,17.64
2023-11-07T04:59:15.798Z,17.50
2023-11-07T05:04:20.864Z,17.45
2023-11-07T05:09:26.563Z,17.29
2023-11-07T05:14:31.933Z,17.25
2023-11-07T05:19:35.613Z,17.70
2023-11-07T05:24:39.235Z,17.10
2023-11-07T05:29:46.299Z,17.31
2023-11-07T05:34:49.944Z,17.46
2023-11-07T05:39:53.556Z,17.77
2023-11-07T05:44:59.428Z,17.34
2023-11-07T05:50:05.437Z,17.42
2023-11-07T05:55:11.576Z,17.42
2023-11-07T06:00:17.173Z,17.75
2023-11-07T06:05:21.987Z,17.97
2023-11-07T06:10:26.018Z,18.08
2023-11-07T06:15:31.954Z,17.93
2023-11-07T06:20:35.580Z,18.18
2023-11-07T06:25:39.292Z,18.33
2023-11-07T06:30:44.822Z,18.12
2023-11-07T06:35:50.438Z,18.38
2023-11-07T06:40:54.196Z,18.33
2023-11-07T06:45:59.807Z,18.30
2023-11-07T06:51:03.813Z,18.18
2023-11-07T06:56:08.043Z,18.10
2023-11-07T07:01:15.197Z,18.22
2023-11-07T07:06:19.736Z,18.39
2023-11-07T07:11:23.458Z,18.26
2023-11-07T07:16:31.647Z,18.19
2023-11-07T07:21:36.470Z,18.41
2023-11-07T07:26:40.169Z,18.54
2023-11-07T07:31:45.393Z,18.61
2023-11-07T07:36:49.339Z,18.74
2023-11-07T07:41:52.929Z,19.06
2023-11-07T07:46:58.901Z,19.01
2023-11-07T07:52:02.974Z,19.06
2023-11-07T07:57:09.765Z,19.30
2023-11-07T08:02:14.867Z,19.39
2023-11-07T08:07:18.643Z,19.56
2023-11-07T08:12:22.327Z,19.60
2023-11-07T08:17:27.412Z,19.90
2023-11-07T08:22:31.034Z,19.88
2023-11-07T08:27:35.552Z,20.06
2023-11-07T08:32:43.504Z,19.59
2023-11-07T08:37:48.514Z,19.45
2023-11-07T08:42:52.728Z,19.85
2023-11-07T08:47:58.694Z,19.52
2023-11-07T08:53:06.562Z,19.66
2023-11-07T08:58:10.555Z,19.92
2023-11-07T09:03:15.583Z,19.51
2023-11-07T09:08:19.438Z,19.25
2023-11-07T09:13:24.552Z,19.79
2023-11-07T09:18:29.617Z,19.52
2023-11-07T09:23:33.447Z,19.70
2023-11-07T09:28:37.129Z,19.02
2023-11-07T09:33:42.297Z,19.71
2023-11-07T09:38:52.193Z,19.73
2023-11-07T09:43:57.291Z,19.61
2023-11-07T09:49:02.503Z,20.10
2023-11-07T09:54:07.618Z,20.05
2023-11-07T09:59:17.090Z,19.85
2023-11-07T10:04:24.180Z,19.78
2023-11-07T10:09:29.826Z,19.81
2023-11-07T10:14:35.713Z,20.35
2023-11-07T10:19:40.824Z,20.41
2023-11-07T10:24:44.797Z,20.53
2023-11-07T10:29:59.300Z,21.14
2023-11-07T10:35:09.095Z,21.18
2023-11-07T10:40:13.599Z,21.08
2023-11-07T10:45:18.721Z,21.17
2023-11-07T10:50:24.108Z,20.44
2023-11-07T10:55:27.995Z,21.16
2023-11-07T11:00:33.569Z,20.94
2023-11-07T11:05:40.889Z,20.90
2023-11-07T11:10:45.885Z,20.89
2023-11-07T11:15:50.914Z,21.18
2023-11-07T11:21:03.361Z,21.46
2023-11-07T11:26:23.077Z,21.66
2023-11-07T11:31:27.485Z,21.32
2023-11-07T11:36:38.171Z,21.24
2023-11-07T11:41:57.390Z,21.41
2023-11-07T11:47:01.502Z,21.48
2023-11-07T11:52:35.731Z,21.61
2023-11-07T11:58:15.510Z,20.90
2023-11-07T12:03:20.354Z,21.47
2023-11-07T12:08:43.855Z,21.99
2023-11-07T12:13:48.493Z,21.71
2023-11-07T12:18:52.586Z,21.56
2023-11-07T12:24:02.771Z,21.57
2023-11-07T12:29:07.475Z,21.15
2023-11-07T12:34:13.062Z,21.31
2023-11-07T12:39:19.888Z,21.83
2023-11-07T12:44:24.352Z,21.99
2023-11-07T12:49:29.146Z,21.29
2023-11-07T12:54:34.454Z,21.82
2023-11-07T12:59:38.220Z,21.47
2023-11-07T13:04:43.283Z,20.90
2023-11-07T13:09:49.765Z,21.42
2023-11-07T13:14:53.693Z,21.07
2023-11-07T13:19:57.391Z,21.09
2023-11-07T13:25:07.445Z,20.92
2023-11-07T13:30:14.841Z,18.97
2023-11-07T13:35:18.882Z,19.24
2023-11-07T13:40:24.078Z,19.32
2023-11-07T13:45:29.641Z,19.00
2023-11-07T13:50:33.614Z,19.63
2023-11-07T13:55:38.684Z,19.97
2023-11-07T14:00:42.387Z,19.28
2023-11-07T14:05:46.718Z,19.62
2023-11-07T14:10:52.131Z,20.29
2023-11-07T14:15:58.068Z,19.72
2023-11-07T14:21:03.942Z,20.09
2023-11-07T14:26:10.066Z,19.88
2023-11-07T14:31:14.093Z,19.46
2023-11-07T14:36:17.827Z,19.32
2023-11-07T14:41:23.589Z,19.38
2023-11-07T14:46:27.523Z,19.12
2023-11-07T14:51:31.273Z,19.42
2023-11-07T14:56:36.399Z,19.35
2023-11-07T15:01:41.041Z,19.44
2023-11-07T15:06:45.438Z,19.58
2023-11-07T15:11:52.615Z,19.39
2023-11-07T15:16:57.656Z,19.21
2023-11-07T15:22:01.298Z,19.38
2023-11-07T15:27:08.927Z,19.04
2023-11-07T15:32:13.208Z,19.12
2023-11-07T15:37:16.814Z,19.20
2023-11-07T15:42:21.722Z,19.06
2023-11-07T15:47:25.419Z,18.98
2023-11-07T15:52:30.023Z,19.01
2023-11-07T15:57:35.114Z,18.78
2023-11-07T16:02:42.506Z,18.72
2023-11-07T16:07:46.144Z,18.78
2023-11-07T16:12:52.436Z,18.60
2023-11-07T16:17:56.535Z,18.79
2023-11-07T16:23:00.676Z,18.58
2023-11-07T16:28:06.694Z,18.45
2023-11-07T16:33:11.155Z,18.63
2023-11-07T16:38:16.914Z,18.47
2023-11-07T16:43:22.083Z,18.65
2023-11-07T16:48:26.358Z,18.50
2023-11-07T16:53:30.059Z,18.28
2023-11-07T16:58:35.091Z,18.36
2023-11-07T17:03:38.827Z,18.73
2023-11-07T17:08:43.048Z,18.57
2023-11-07T17:13:48.171Z,18.30
2023-11-07T17:18:54.311Z,18.05
2023-11-07T17:23:58.305Z,17.99
2023-11-07T17:29:04.492Z,17.92
2023-11-07T17:34:09.202Z,17.94
2023-11-07T17:39:17.200Z,17.71
2023-11-07T17:44:23.859Z,17.67
2023-11-07T17:49:29.060Z,17.55
2023-11-07T17:54:33.259Z,17.48
2023-11-07T17:59:38.602Z,17.67
2023-11-07T18:04:42.578Z,17.73
2023-11-07T18:09:46.838Z,17.67
2023-11-07T18:14:53.534Z,17.50
2023-11-07T18:19:57.190Z,17.63
2023-11-07T18:25:03.698Z,17.45
2023-11-07T18:30:10.232Z,17.25
2023-11-07T18:35:13.994Z,17.19
2023-11-07T18:40:17.774Z,17.26
2023-11-07T18:45:22.821Z,17.06
2023-11-07T18:50:26.601Z,16.67
2023-11-07T18:55:30.766Z,16.92
2023-11-07T19:00:40.163Z,16.82
2023-11-07T19:05:44.271Z,16.75
2023-11-07T19:10:48.427Z,16.65
2023-11-07T19:15:53.501Z,16.89
2023-11-07T19:20:58.333Z,17.01
2023-11-07T19:26:02.135Z,16.97
2023-11-07T19:31:07.473Z,16.63
2023-11-07T19:36:13.646Z,16.69
2023-11-07T19:41:17.818Z,16.49
2023-11-07T19:46:22.885Z,16.52
2023-11-07T19:51:26.901Z,16.51
2023-11-07T19:56:30.583Z,16.56
2023-11-07T20:01:35.855Z,16.62
2023-11-07T20:06:39.625Z,16.12
2023-11-07T20:11:43.345Z,16.37
2023-11-07T20:16:48.571Z,16.59
2023-11-07T20:21:52.213Z,16.44
2023-11-07T20:26:56.926Z,16.34
2023-11-07T20:32:02.040Z,16.38
2023-11-07T20:37:06.411Z,16.38
2023-11-07T20:42:12.371Z,16.76
2023-11-07T20:47:17.698Z,16.70
2023-11-07T20:52:27.178Z,16.45
2023-11-07T20:57:34.413Z,16.20
2023-11-07T21:02:40.067Z,16.54
2023-11-07T21:07:43.888Z,16.62
2023-11-07T21:12:47.551Z,16.38
2023-11-07T21:17:53.127Z,16.49
2023-11-07T21:22:57.356Z,16.39
2023-11-07T21:28:01.312Z,16.44
2023-11-07T21:33:07.160Z,16.26
2023-11-07T21:38:11.025Z,16.09
2023-11-07T21:43:14.801Z,16.10
2023-11-07T21:48:22.039Z,15.71
2023-11-07T21:53:27.714Z,16.16
2023-11-07T21:58:31.434Z,16.16
2023-11-07T22:03:36.786Z,16.14
2023-11-07T22:08:40.491Z,16.20
2023-11-07T22:13:44.218Z,16.27
2023-11-07T22:18:49.151Z,15.73
2023-11-07T22:23:52.790Z,16.08
2023-11-07T22:28:56.477Z,15.76
2023-11-07T22:34:01.611Z,16.20
2023-11-07T22:39:06.528Z,16.20
2023-11-07T22:44:10.272Z,16.10
2023-11-07T22:49:15.365Z,15.91
2023-11-07T22:54:19.264Z,15.90
2023-11-07T22:59:22.901Z,16.13
2023-11-07T23:04:27.889Z,16.10
2023-11-07T23:09:31.597Z,16.24
2023-11-07T23:14:35.769Z,16.19
2023-11-07T23:19:40.840Z,16.21
2023-11-07T23:24:44.489Z,16.42
2023-11-07T23:29:54.984Z,16.35
2023-11-07T23:34:59.910Z,16.11
2023-11-07T23:40:07.670Z,16.53
2023-11-07T23:45:12.150Z,16.12
2023-11-07T23:50:17.421Z,16.57
2023-11-07T23:55:21.148Z,16.56
